sensor_id;sensor_type;location;lat;lon;timestamp;pressure;altitude;pressure_sealevel;temperature;humidity
29815;BME280;16708;50.426;7.664;2023-02-13T00:04:00;1007.79;;;6.84;100.00
29815;BME280;16708;50.426;7.664;2023-02-13T00:08:51;1007.78;;;6.83;100.00
29815;BME280;16708;50.426;7.664;2023-02-13T00:13:46;1007.78;;;6.82;100.00
29815;BME280;16708;50.426;7.664;2023-02-13T00:18:40;1007.69;;;6.81;100.00
29815;BME280;16708;50.426;7.664;2023-02-13T00:23:35;1007.66;;;6.83;100.00
29815;BME280;16708;50.426;7.664;2023-02-13T00:28:29;1007.68;;;6.82;100.00
29815;BME280;16708;50.426;7.664;2023-02-13T00:33:24;1007.72;;;6.81;100.00
29815;BME280;16708;50.426;7.664;2023-02-13T00:38:18;1007.68;;;6.82;100.00
29815;BME280;16708;50.426;7.664;2023-02-13T00:43:13;1007.72;;;6.78;100.00
29815;BME280;16708;50.426;7.664;2023-02-13T00:48:10;1007.58;;;6.75;100.00
29815;BME280;16708;50.426;7.664;2023-02-13T00:53:01;1007.63;;;6.78;100.00
29815;BME280;16708;50.426;7.664;2023-02-13T00:57:54;1007.70;;;6.76;100.00
29815;BME280;16708;50.426;7.664;2023-02-13T01:02:48;1007.69;;;6.77;100.00
29815;BME280;16708;50.426;7.664;2023-02-13T01:07:42;1007.66;;;6.77;100.00
29815;BME280;16708;50.426;7.664;2023-02-13T01:12:36;1007.70;;;6.74;100.00
29815;BME280;16708;50.426;7.664;2023-02-13T01:17:29;1007.72;;;6.77;100.00
29815;BME280;16708;50.426;7.664;2023-02-13T01:22:22;1007.68;;;6.70;100.00
29815;BME280;16708;50.426;7.664;2023-02-13T01:27:17;1007.63;;;6.67;100.00
29815;BME280;16708;50.426;7.664;2023-02-13T01:32:11;1007.56;;;6.67;100.00
29815;BME280;16708;50.426;7.664;2023-02-13T01:37:05;1007.51;;;6.67;100.00
29815;BME280;16708;50.426;7.664;2023-02-13T01:42:00;1007.52;;;6.68;100.00
29815;BME280;16708;50.426;7.664;2023-02-13T01:46:53;1007.49;;;6.68;100.00
29815;BME280;16708;50.426;7.664;2023-02-13T01:51:47;1007.41;;;6.66;100.00
29815;BME280;16708;50.426;7.664;2023-02-13T01:56:42;1007.33;;;6.59;100.00
29815;BME280;16708;50.426;7.664;2023-02-13T02:01:36;1007.32;;;6.51;100.00
29815;BME280;16708;50.426;7.664;2023-02-13T02:06:30;1007.33;;;6.49;100.00
29815;BME280;16708;50.426;7.664;2023-02-13T02:11:24;1007.31;;;6.52;100.00
29815;BME280;16708;50.426;7.664;2023-02-13T02:16:17;1007.32;;;6.56;100.00
29815;BME280;16708;50.426;7.664;2023-02-13T02:40:47;1007.22;;;6.38;100.00
29815;BME280;16708;50.426;7.664;2023-02-13T02:50:36;1007.30;;;6.43;100.00
29815;BME280;16708;50.426;7.664;2023-02-13T02:55:30;1007.28;;;6.43;100.00
29815;BME280;16708;50.426;7.664;2023-02-13T03:00:24;1007.38;;;6.38;100.00
29815;BME280;16708;50.426;7.664;2023-02-13T03:05:19;1007.33;;;6.32;100.00
29815;BME280;16708;50.426;7.664;2023-02-13T03:10:13;1007.43;;;6.17;100.00
29815;BME280;16708;50.426;7.664;2023-02-13T03:19:59;1007.54;;;5.91;100.00
29815;BME280;16708;50.426;7.664;2023-02-13T03:24:53;1007.51;;;5.74;100.00
29815;BME280;16708;50.426;7.664;2023-02-13T03:39:34;1007.46;;;5.08;100.00
29815;BME280;16708;50.426;7.664;2023-02-13T03:44:27;1007.55;;;4.80;100.00
29815;BME280;16708;50.426;7.664;2023-02-13T03:49:22;1007.60;;;4.60;100.00
29815;BME280;16708;50.426;7.664;2023-02-13T03:54:16;1007.68;;;4.48;100.00
29815;BME280;16708;50.426;7.664;2023-02-13T03:59:10;1007.66;;;4.56;100.00
29815;BME280;16708;50.426;7.664;2023-02-13T04:04:04;1007.65;;;4.72;100.00
29815;BME280;16708;50.426;7.664;2023-02-13T04:08:59;1007.60;;;4.78;100.00
29815;BME280;16708;50.426;7.664;2023-02-13T04:13:55;1007.63;;;4.91;100.00
29815;BME280;16708;50.426;7.664;2023-02-13T04:18:47;1007.60;;;4.96;100.00
29815;BME280;16708;50.426;7.664;2023-02-13T04:23:41;1007.52;;;5.00;100.00
29815;BME280;16708;50.426;7.664;2023-02-13T04:28:36;1007.59;;;5.04;100.00
29815;BME280;16708;50.426;7.664;2023-02-13T04:33:29;1007.58;;;5.09;100.00
29815;BME280;16708;50.426;7.664;2023-02-13T04:38:24;1007.57;;;4.93;100.00
29815;BME280;16708;50.426;7.664;2023-02-13T04:43:17;1007.61;;;4.83;100.00
29815;BME280;16708;50.426;7.664;2023-02-13T04:48:12;1007.54;;;4.64;100.00
29815;BME280;16708;50.426;7.664;2023-02-13T04:53:06;1007.57;;;4.32;100.00
29815;BME280;16708;50.426;7.664;2023-02-13T04:58:00;1007.46;;;4.09;100.00
29815;BME280;16708;50.426;7.664;2023-02-13T05:02:54;1007.40;;;3.88;100.00
29815;BME280;16708;50.426;7.664;2023-02-13T05:07:48;1007.44;;;3.60;100.00
29815;BME280;16708;50.426;7.664;2023-02-13T05:12:42;1007.49;;;3.39;100.00
29815;BME280;16708;50.426;7.664;2023-02-13T05:17:36;1007.47;;;3.30;100.00
29815;BME280;16708;50.426;7.664;2023-02-13T05:22:31;1007.49;;;3.04;100.00
29815;BME280;16708;50.426;7.664;2023-02-13T05:27:25;1007.56;;;2.89;100.00
29815;BME280;16708;50.426;7.664;2023-02-13T05:32:19;1007.55;;;2.86;100.00
29815;BME280;16708;50.426;7.664;2023-02-13T05:37:14;1007.40;;;2.82;100.00
29815;BME280;16708;50.426;7.664;2023-02-13T05:42:08;1007.41;;;2.73;100.00
29815;BME280;16708;50.426;7.664;2023-02-13T05:47:02;1007.38;;;2.61;100.00
29815;BME280;16708;50.426;7.664;2023-02-13T05:51:56;1007.39;;;2.56;100.00
29815;BME280;16708;50.426;7.664;2023-02-13T05:56:50;1007.45;;;2.47;100.00
29815;BME280;16708;50.426;7.664;2023-02-13T06:01:44;1007.43;;;2.35;100.00
29815;BME280;16708;50.426;7.664;2023-02-13T06:06:38;1007.45;;;2.22;100.00
29815;BME280;16708;50.426;7.664;2023-02-13T06:11:33;1007.48;;;2.34;100.00
29815;BME280;16708;50.426;7.664;2023-02-13T06:16:26;1007.48;;;2.19;100.00
29815;BME280;16708;50.426;7.664;2023-02-13T06:21:21;1007.48;;;2.07;100.00
29815;BME280;16708;50.426;7.664;2023-02-13T06:26:15;1007.41;;;2.12;100.00
29815;BME280;16708;50.426;7.664;2023-02-13T06:31:09;1007.50;;;2.11;100.00
29815;BME280;16708;50.426;7.664;2023-02-13T06:36:02;1007.53;;;1.97;100.00
29815;BME280;16708;50.426;7.664;2023-02-13T06:40:56;1007.57;;;2.02;100.00
29815;BME280;16708;50.426;7.664;2023-02-13T06:45:51;1007.57;;;1.91;100.00
29815;BME280;16708;50.426;7.664;2023-02-13T06:50:45;1007.54;;;1.74;100.00
29815;BME280;16708;50.426;7.664;2023-02-13T06:55:39;1007.52;;;1.75;100.00
29815;BME280;16708;50.426;7.664;2023-02-13T07:00:32;1007.55;;;1.76;100.00
29815;BME280;16708;50.426;7.664;2023-02-13T07:05:26;1007.62;;;1.81;100.00
29815;BME280;16708;50.426;7.664;2023-02-13T07:10:21;1007.65;;;1.85;100.00
29815;BME280;16708;50.426;7.664;2023-02-13T07:15:15;1007.60;;;2.02;100.00
29815;BME280;16708;50.426;7.664;2023-02-13T07:20:10;1007.66;;;2.07;100.00
29815;BME280;16708;50.426;7.664;2023-02-13T07:25:04;1007.64;;;2.20;100.00
29815;BME280;16708;50.426;7.664;2023-02-13T07:29:59;1007.63;;;2.28;100.00
29815;BME280;16708;50.426;7.664;2023-02-13T07:34:53;1007.64;;;2.19;100.00
29815;BME280;16708;50.426;7.664;2023-02-13T07:39:47;1007.60;;;2.58;100.00
29815;BME280;16708;50.426;7.664;2023-02-13T07:44:41;1007.63;;;2.74;100.00
29815;BME280;16708;50.426;7.664;2023-02-13T07:49:35;1007.64;;;2.91;100.00
29815;BME280;16708;50.426;7.664;2023-02-13T07:54:30;1007.55;;;3.09;100.00
29815;BME280;16708;50.426;7.664;2023-02-13T07:59:25;1007.51;;;3.22;100.00
29815;BME280;16708;50.426;7.664;2023-02-13T08:04:19;1007.49;;;3.43;100.00
29815;BME280;16708;50.426;7.664;2023-02-13T08:09:13;1007.54;;;3.57;100.00
29815;BME280;16708;50.426;7.664;2023-02-13T08:14:07;1007.48;;;3.75;100.00
29815;BME280;16708;50.426;7.664;2023-02-13T08:19:00;1007.54;;;4.01;100.00
29815;BME280;16708;50.426;7.664;2023-02-13T08:23:55;1007.56;;;4.25;100.00
29815;BME280;16708;50.426;7.664;2023-02-13T08:28:48;1007.58;;;4.71;100.00
29815;BME280;16708;50.426;7.664;2023-02-13T08:33:43;1007.60;;;5.10;100.00
29815;BME280;16708;50.426;7.664;2023-02-13T08:38:37;1007.55;;;5.40;100.00
29815;BME280;16708;50.426;7.664;2023-02-13T08:43:31;1007.57;;;5.76;100.00
29815;BME280;16708;50.426;7.664;2023-02-13T08:48:24;1007.59;;;6.00;100.00
29815;BME280;16708;50.426;7.664;2023-02-13T08:53:19;1007.63;;;6.24;100.00
29815;BME280;16708;50.426;7.664;2023-02-13T08:58:13;1007.64;;;6.66;100.00
29815;BME280;16708;50.426;7.664;2023-02-13T09:03:06;1007.79;;;6.92;100.00
29815;BME280;16708;50.426;7.664;2023-02-13T09:08:00;1007.77;;;7.23;100.00
29815;BME280;16708;50.426;7.664;2023-02-13T09:12:55;1007.76;;;7.76;100.00
29815;BME280;16708;50.426;7.664;2023-02-13T09:17:52;1007.72;;;9.39;100.00
29815;BME280;16708;50.426;7.664;2023-02-13T09:22:48;1007.81;;;11.82;100.00
29815;BME280;16708;50.426;7.664;2023-02-13T09:27:44;1007.87;;;13.63;72.76
29815;BME280;16708;50.426;7.664;2023-02-13T09:32:39;1007.82;;;14.22;63.33
29815;BME280;16708;50.426;7.664;2023-02-13T09:37:34;1007.81;;;15.44;56.08
29815;BME280;16708;50.426;7.664;2023-02-13T09:42:29;1007.84;;;13.94;59.41
29815;BME280;16708;50.426;7.664;2023-02-13T09:47:23;1007.92;;;13.41;63.99
29815;BME280;16708;50.426;7.664;2023-02-13T09:52:17;1007.81;;;12.80;67.27
29815;BME280;16708;50.426;7.664;2023-02-13T09:57:12;1007.82;;;14.71;59.18
29815;BME280;16708;50.426;7.664;2023-02-13T10:02:05;1007.84;;;13.96;58.38
29815;BME280;16708;50.426;7.664;2023-02-13T10:06:59;1007.85;;;16.18;50.36
29815;BME280;16708;50.426;7.664;2023-02-13T10:11:54;1007.90;;;14.87;54.84
29815;BME280;16708;50.426;7.664;2023-02-13T10:16:49;1007.88;;;14.73;52.70
29815;BME280;16708;50.426;7.664;2023-02-13T10:21:44;1007.87;;;14.60;53.55
29815;BME280;16708;50.426;7.664;2023-02-13T10:26:39;1007.84;;;14.79;51.80
29815;BME280;16708;50.426;7.664;2023-02-13T10:31:34;1007.80;;;17.12;47.62
29815;BME280;16708;50.426;7.664;2023-02-13T10:36:29;1007.79;;;16.63;47.73
29815;BME280;16708;50.426;7.664;2023-02-13T11:05:57;1007.56;;;17.07;43.41
29815;BME280;16708;50.426;7.664;2023-02-13T11:10:52;1007.50;;;17.54;44.36
29815;BME280;16708;50.426;7.664;2023-02-13T11:15:44;1007.46;;;20.67;38.60
29815;BME280;16708;50.426;7.664;2023-02-13T11:20:39;1007.44;;;21.17;37.25
29815;BME280;16708;50.426;7.664;2023-02-13T11:25:32;1007.44;;;18.44;41.54
29815;BME280;16708;50.426;7.664;2023-02-13T11:35:23;1007.31;;;16.80;43.54
29815;BME280;16708;50.426;7.664;2023-02-13T11:40:15;1007.24;;;19.63;38.57
29815;BME280;16708;50.426;7.664;2023-02-13T11:45:10;1007.22;;;21.48;35.23
29815;BME280;16708;50.426;7.664;2023-02-13T12:09:41;1006.95;;;20.45;36.00
29815;BME280;16708;50.426;7.664;2023-02-13T12:14:33;1006.92;;;20.60;36.07
29815;BME280;16708;50.426;7.664;2023-02-13T12:19:26;1006.88;;;19.19;37.47
29815;BME280;16708;50.426;7.664;2023-02-13T13:03:35;1006.37;;;23.87;30.46
29815;BME280;16708;50.426;7.664;2023-02-13T13:13:25;1006.33;;;22.16;32.29
29815;BME280;16708;50.426;7.664;2023-02-13T13:23:11;1006.30;;;21.11;33.32
29815;BME280;16708;50.426;7.664;2023-02-13T13:28:04;1006.20;;;20.90;34.22
29815;BME280;16708;50.426;7.664;2023-02-13T13:32:58;1006.17;;;21.43;32.66
29815;BME280;16708;50.426;7.664;2023-02-13T13:47:37;1006.04;;;21.00;33.00
29815;BME280;16708;50.426;7.664;2023-02-13T13:52:31;1005.96;;;21.00;33.79
29815;BME280;16708;50.426;7.664;2023-02-13T14:07:14;1005.91;;;22.12;32.06
29815;BME280;16708;50.426;7.664;2023-02-13T14:12:08;1005.95;;;20.51;34.58
29815;BME280;16708;50.426;7.664;2023-02-13T14:17:02;1005.92;;;24.11;29.57
29815;BME280;16708;50.426;7.664;2023-02-13T14:21:57;1005.78;;;20.68;33.54
29815;BME280;16708;50.426;7.664;2023-02-13T14:26:51;1005.77;;;20.69;33.86
29815;BME280;16708;50.426;7.664;2023-02-13T14:31:45;1005.71;;;19.26;35.15
29815;BME280;16708;50.426;7.664;2023-02-13T14:41:33;1005.74;;;20.63;34.44
29815;BME280;16708;50.426;7.664;2023-02-13T14:46:26;1005.72;;;21.80;33.79
29815;BME280;16708;50.426;7.664;2023-02-13T14:51:20;1005.71;;;20.82;34.97
29815;BME280;16708;50.426;7.664;2023-02-13T14:56:13;1005.65;;;20.75;34.21
29815;BME280;16708;50.426;7.664;2023-02-13T15:01:09;1005.71;;;18.65;37.82
29815;BME280;16708;50.426;7.664;2023-02-13T15:06:01;1005.77;;;20.14;35.49
29815;BME280;16708;50.426;7.664;2023-02-13T15:10:55;1005.56;;;19.82;36.48
29815;BME280;16708;50.426;7.664;2023-02-13T15:15:47;1005.63;;;18.35;38.96
29815;BME280;16708;50.426;7.664;2023-02-13T15:20:41;1005.65;;;18.37;39.24
29815;BME280;16708;50.426;7.664;2023-02-13T15:30:29;1005.62;;;18.76;38.91
29815;BME280;16708;50.426;7.664;2023-02-13T15:40:16;1005.61;;;16.70;43.28
29815;BME280;16708;50.426;7.664;2023-02-13T15:45:10;1005.65;;;17.70;41.63
29815;BME280;16708;50.426;7.664;2023-02-13T15:50:02;1005.55;;;17.88;41.52
29815;BME280;16708;50.426;7.664;2023-02-13T15:54:56;1005.55;;;16.63;44.26
29815;BME280;16708;50.426;7.664;2023-02-13T15:59:50;1005.52;;;15.48;46.75
29815;BME280;16708;50.426;7.664;2023-02-13T16:04:43;1005.49;;;15.14;48.57
29815;BME280;16708;50.426;7.664;2023-02-13T16:14:30;1005.56;;;12.86;63.64
29815;BME280;16708;50.426;7.664;2023-02-13T16:19:23;1005.59;;;12.65;68.67
29815;BME280;16708;50.426;7.664;2023-02-13T16:29:07;1005.56;;;11.97;78.81
29815;BME280;16708;50.426;7.664;2023-02-13T16:48:43;1005.82;;;10.67;99.31
29815;BME280;16708;50.426;7.664;2023-02-13T16:53:38;1005.75;;;10.47;100.00
29815;BME280;16708;50.426;7.664;2023-02-13T16:58:29;1005.84;;;10.27;100.00
29815;BME280;16708;50.426;7.664;2023-02-13T17:08:18;1005.85;;;9.63;100.00
29815;BME280;16708;50.426;7.664;2023-02-13T17:13:11;1005.93;;;9.44;100.00
29815;BME280;16708;50.426;7.664;2023-02-13T17:18:04;1005.95;;;9.25;100.00
29815;BME280;16708;50.426;7.664;2023-02-13T17:22:58;1005.99;;;9.04;100.00
29815;BME280;16708;50.426;7.664;2023-02-13T17:27:53;1005.92;;;8.85;100.00
29815;BME280;16708;50.426;7.664;2023-02-13T17:32:49;1006.10;;;8.77;100.00
29815;BME280;16708;50.426;7.664;2023-02-13T17:37:39;1006.09;;;8.56;100.00
29815;BME280;16708;50.426;7.664;2023-02-13T17:42:32;1006.08;;;8.57;100.00
29815;BME280;16708;50.426;7.664;2023-02-13T17:47:26;1006.06;;;8.27;100.00
29815;BME280;16708;50.426;7.664;2023-02-13T17:52:20;1006.01;;;8.18;100.00
29815;BME280;16708;50.426;7.664;2023-02-13T17:57:12;1006.00;;;8.04;100.00
29815;BME280;16708;50.426;7.664;2023-02-13T18:02:07;1005.97;;;7.87;100.00
29815;BME280;16708;50.426;7.664;2023-02-13T18:06:59;1005.97;;;7.67;100.00
29815;BME280;16708;50.426;7.664;2023-02-13T18:11:53;1005.97;;;7.46;100.00
29815;BME280;16708;50.426;7.664;2023-02-13T18:16:46;1006.07;;;7.33;100.00
29815;BME280;16708;50.426;7.664;2023-02-13T18:21:37;1006.07;;;7.20;100.00
29815;BME280;16708;50.426;7.664;2023-02-13T18:26:31;1006.00;;;7.20;100.00
29815;BME280;16708;50.426;7.664;2023-02-13T18:31:25;1006.00;;;7.12;100.00
29815;BME280;16708;50.426;7.664;2023-02-13T18:36:20;1005.89;;;6.81;100.00
29815;BME280;16708;50.426;7.664;2023-02-13T18:41:14;1005.99;;;6.68;100.00
29815;BME280;16708;50.426;7.664;2023-02-13T18:46:08;1006.01;;;6.59;100.00
29815;BME280;16708;50.426;7.664;2023-02-13T18:51:02;1006.07;;;6.59;100.00
29815;BME280;16708;50.426;7.664;2023-02-13T18:55:57;1006.05;;;6.49;100.00
29815;BME280;16708;50.426;7.664;2023-02-13T19:00:51;1006.09;;;6.49;100.00
29815;BME280;16708;50.426;7.664;2023-02-13T19:05:45;1006.10;;;6.40;100.00
29815;BME280;16708;50.426;7.664;2023-02-13T19:10:40;1006.10;;;6.45;100.00
29815;BME280;16708;50.426;7.664;2023-02-13T19:15:32;1006.11;;;6.51;100.00
29815;BME280;16708;50.426;7.664;2023-02-13T19:20:26;1006.11;;;6.49;100.00
29815;BME280;16708;50.426;7.664;2023-02-13T19:25:18;1006.21;;;6.43;100.00
29815;BME280;16708;50.426;7.664;2023-02-13T19:30:13;1006.15;;;6.42;100.00
29815;BME280;16708;50.426;7.664;2023-02-13T19:35:07;1006.06;;;6.32;100.00
29815;BME280;16708;50.426;7.664;2023-02-13T19:40:04;1006.02;;;6.24;100.00
29815;BME280;16708;50.426;7.664;2023-02-13T19:44:53;1006.09;;;6.02;100.00
29815;BME280;16708;50.426;7.664;2023-02-13T19:49:47;1006.09;;;5.91;100.00
29815;BME280;16708;50.426;7.664;2023-02-13T19:54:40;1006.14;;;5.99;100.00
29815;BME280;16708;50.426;7.664;2023-02-13T19:59:34;1006.20;;;5.93;100.00
29815;BME280;16708;50.426;7.664;2023-02-13T20:04:27;1006.24;;;5.94;100.00
29815;BME280;16708;50.426;7.664;2023-02-13T20:09:21;1006.19;;;5.90;100.00
29815;BME280;16708;50.426;7.664;2023-02-13T20:14:14;1006.27;;;5.79;100.00
29815;BME280;16708;50.426;7.664;2023-02-13T20:19:09;1006.24;;;5.64;100.00
29815;BME280;16708;50.426;7.664;2023-02-13T20:24:01;1006.25;;;5.50;100.00
29815;BME280;16708;50.426;7.664;2023-02-13T20:28:53;1006.28;;;5.43;100.00
29815;BME280;16708;50.426;7.664;2023-02-13T20:33:46;1006.22;;;5.39;100.00
29815;BME280;16708;50.426;7.664;2023-02-13T20:38:40;1006.15;;;5.47;100.00
29815;BME280;16708;50.426;7.664;2023-02-13T20:43:34;1006.22;;;5.42;100.00
29815;BME280;16708;50.426;7.664;2023-02-13T20:48:29;1006.16;;;5.39;100.00
29815;BME280;16708;50.426;7.664;2023-02-13T20:53:21;1006.15;;;5.47;100.00
29815;BME280;16708;50.426;7.664;2023-02-13T20:58:15;1006.04;;;5.36;100.00
29815;BME280;16708;50.426;7.664;2023-02-13T21:03:09;1006.08;;;5.27;100.00
29815;BME280;16708;50.426;7.664;2023-02-13T21:08:04;1006.00;;;5.33;100.00
29815;BME280;16708;50.426;7.664;2023-02-13T21:12:58;1006.01;;;5.22;100.00
29815;BME280;16708;50.426;7.664;2023-02-13T21:17:52;1005.93;;;5.12;100.00
29815;BME280;16708;50.426;7.664;2023-02-13T21:22:46;1005.91;;;5.11;100.00
29815;BME280;16708;50.426;7.664;2023-02-13T21:27:39;1005.88;;;5.01;100.00
29815;BME280;16708;50.426;7.664;2023-02-13T21:32:34;1005.95;;;4.94;100.00
29815;BME280;16708;50.426;7.664;2023-02-13T21:37:26;1005.85;;;4.78;100.00
29815;BME280;16708;50.426;7.664;2023-02-13T21:42:20;1005.89;;;4.67;100.00
29815;BME280;16708;50.426;7.664;2023-02-13T21:47:15;1005.87;;;4.58;100.00
29815;BME280;16708;50.426;7.664;2023-02-13T21:52:09;1005.78;;;4.36;100.00
29815;BME280;16708;50.426;7.664;2023-02-13T21:57:04;1005.91;;;4.27;100.00
29815;BME280;16708;50.426;7.664;2023-02-13T22:01:58;1005.83;;;4.02;100.00
29815;BME280;16708;50.426;7.664;2023-02-13T22:06:52;1005.73;;;3.89;100.00
29815;BME280;16708;50.426;7.664;2023-02-13T22:11:46;1005.72;;;3.70;100.00
29815;BME280;16708;50.426;7.664;2023-02-13T22:16:40;1005.69;;;3.65;100.00
29815;BME280;16708;50.426;7.664;2023-02-13T22:21:33;1005.65;;;3.55;100.00
29815;BME280;16708;50.426;7.664;2023-02-13T22:26:28;1005.69;;;3.48;100.00
29815;BME280;16708;50.426;7.664;2023-02-13T22:31:21;1005.62;;;3.35;100.00
29815;BME280;16708;50.426;7.664;2023-02-13T22:36:16;1005.66;;;3.18;100.00
29815;BME280;16708;50.426;7.664;2023-02-13T22:41:10;1005.64;;;2.98;100.00
29815;BME280;16708;50.426;7.664;2023-02-13T22:46:04;1005.67;;;3.07;100.00
29815;BME280;16708;50.426;7.664;2023-02-13T22:50:57;1005.68;;;3.06;100.00
29815;BME280;16708;50.426;7.664;2023-02-13T22:55:52;1005.71;;;2.91;100.00
29815;BME280;16708;50.426;7.664;2023-02-13T23:00:45;1005.71;;;2.79;100.00
29815;BME280;16708;50.426;7.664;2023-02-13T23:05:41;1005.76;;;2.65;100.00
29815;BME280;16708;50.426;7.664;2023-02-13T23:10:34;1005.70;;;2.57;100.00
29815;BME280;16708;50.426;7.664;2023-02-13T23:15:26;1005.80;;;2.57;100.00
29815;BME280;16708;50.426;7.664;2023-02-13T23:20:20;1005.79;;;2.52;100.00
29815;BME280;16708;50.426;7.664;2023-02-13T23:25:14;1005.79;;;2.47;100.00
29815;BME280;16708;50.426;7.664;2023-02-13T23:30:08;1005.84;;;2.41;100.00
29815;BME280;16708;50.426;7.664;2023-02-13T23:35:03;1005.81;;;2.30;100.00
29815;BME280;16708;50.426;7.664;2023-02-13T23:40:00;1005.85;;;2.23;100.00
29815;BME280;16708;50.426;7.664;2023-02-13T23:44:51;1005.86;;;2.12;100.00
29815;BME280;16708;50.426;7.664;2023-02-13T23:49:45;1005.89;;;2.00;100.00
29815;BME280;16708;50.426;7.664;2023-02-13T23:54:39;1005.96;;;1.94;100.00
29815;BME280;16708;50.426;7.664;2023-02-13T23:59:33;1005.87;;;1.76;100.00
